Sao Joao da Mata, Brazil
Current Conditions -  °F | °C
As of 1:00 PM on Wednesday 22 Oct 2014 (Local Time) from SBSJ Reporting Station
Broken Clouds Broken Clouds  
Wind Chill: 24°   Ceiling: 3000
Heat Index: 24°   Visibility: 6mi
Dew Point: 13°   Wind: 8mph
Humidity: 50%   Direction: 140°SE
Pressure: 30.21"   Gusts: NA
Location:  21.93°S, 45.93°W
Report Text: SBSJ 221500Z 14007KT 9999 BKN030 24/13 Q1023
Loading
Personal Weather Stations






























Interactive Weather Map
Tropical Storm Tracking
New forecast layout! Learn more

10-Day Weather Forecast

Advertisements
Track Severe Weather on mobile